Time;durP1;ratioP1;P1;durP2;ratioP2;P2;SDS_P1;SDS_P2;PMS_P1;PMS_P2;Temp;Humidity;BMP_temperature;BMP_pressure;BME280_temperature;BME280_humidity;BME280_pressure;Samples;Min_cycle;Max_cycle;Signal;HPM_P1;HPM_P2
2022/05/10 00:01:42;;;;;;;5.80;3.97;;;19.50;94.90;;;;;;4152562;28;20388;-69
2022/05/10 00:03:42;;;;;;;5.18;3.85;;;19.60;95.20;;;;;;4151604;28;20385;-69
2022/05/10 00:05:43;;;;;;;5.13;4.18;;;19.60;95.10;;;;;;4154299;28;20034;-69
2022/05/10 00:07:43;;;;;;;6.90;4.15;;;19.60;95.20;;;;;;4155986;28;20491;-69
2022/05/10 00:09:44;;;;;;;5.60;4.45;;;19.60;95.30;;;;;;4154647;28;20481;-69
2022/05/10 00:11:45;;;;;;;5.72;4.47;;;19.60;95.30;;;;;;4148423;28;20393;-68
2022/05/10 00:13:45;;;;;;;7.25;5.03;;;19.60;95.50;;;;;;4158871;28;20030;-69
2022/05/10 00:15:47;;;;;;;7.03;4.45;;;19.60;95.40;;;;;;4151064;28;20065;-68
2022/05/10 00:17:48;;;;;;;6.68;4.40;;;19.60;95.90;;;;;;4154739;28;20033;-69
2022/05/10 00:19:49;;;;;;;9.63;5.15;;;19.60;96.00;;;;;;4155791;28;20435;-68
2022/05/10 00:21:50;;;;;;;6.13;5.00;;;19.60;95.80;;;;;;4153976;28;20108;-69
2022/05/10 00:23:51;;;;;;;6.43;4.57;;;19.60;95.80;;;;;;4159749;28;20030;-68
2022/05/10 00:25:52;;;;;;;6.45;4.68;;;19.60;95.60;;;;;;4162544;28;20439;-69
2022/05/10 00:27:53;;;;;;;6.38;4.72;;;19.50;94.60;;;;;;4157566;28;20033;-69
2022/05/10 00:29:53;;;;;;;6.85;4.90;;;19.40;95.30;;;;;;4156846;28;20033;-69
2022/05/10 00:31:54;;;;;;;7.10;4.82;;;19.40;95.60;;;;;;4156087;28;20065;-69
2022/05/10 00:33:55;;;;;;;6.72;4.72;;;19.30;96.00;;;;;;4157100;28;20030;-69
2022/05/10 00:35:57;;;;;;;7.32;5.38;;;19.20;96.40;;;;;;4156124;28;20068;-69
2022/05/10 00:38:00;;;;;;;7.03;5.35;;;19.20;96.70;;;;;;4155732;28;20045;-69
2022/05/10 00:40:01;;;;;;;7.10;5.10;;;19.10;96.90;;;;;;4156280;28;20033;-69
2022/05/10 00:42:07;;;;;;;6.70;4.90;;;19.10;97.10;;;;;;4151825;28;20041;-70
2022/05/10 00:44:10;;;;;;;9.38;5.72;;;19.00;97.20;;;;;;4157752;28;20036;-69
2022/05/10 00:46:17;;;;;;;7.15;5.22;;;19.00;97.50;;;;;;4155452;28;20052;-69
2022/05/10 00:48:33;;;;;;;8.75;5.88;;;19.00;97.40;;;;;;4153010;28;20516;-69
2022/05/10 00:50:49;;;;;;;10.13;6.50;;;19.00;97.50;;;;;;4156886;28;20516;-68
2022/05/10 00:52:58;;;;;;;7.25;5.80;;;18.90;97.50;;;;;;4158383;28;20033;-69
2022/05/10 00:55:05;;;;;;;7.60;5.95;;;19.00;97.70;;;;;;4158405;28;20488;-68
2022/05/10 00:57:14;;;;;;;8.40;6.10;;;19.00;97.50;;;;;;4159384;28;20036;-69
2022/05/10 00:59:45;;;;;;;8.13;6.25;;;19.00;97.50;;;;;;4156987;28;20042;-68
2022/05/10 01:01:51;;;;;;;7.65;6.03;;;19.00;97.30;;;;;;4159663;28;20033;-68
2022/05/10 01:04:25;;;;;;;8.55;6.25;;;19.10;97.10;;;;;;4158329;28;20504;-68
2022/05/10 01:06:33;;;;;;;7.95;6.70;;;19.10;97.00;;;;;;4153033;28;20034;-69
2022/05/10 01:09:01;;;;;;;8.45;6.53;;;19.10;97.00;;;;;;4159026;28;20057;-69
2022/05/10 01:11:10;;;;;;;9.43;7.05;;;19.10;97.60;;;;;;4161909;28;20040;-69
2022/05/10 01:13:14;;;;;;;9.25;6.75;;;19.10;97.30;;;;;;4155709;28;20038;-69
2022/05/10 01:15:19;;;;;;;8.93;6.43;;;19.20;97.40;;;;;;4159744;28;20050;-68
2022/05/10 01:17:20;;;;;;;8.43;6.32;;;19.10;97.50;;;;;;4155028;28;20033;-68
2022/05/10 01:19:21;;;;;;;9.40;6.28;;;19.20;97.50;;;;;;4154198;28;20030;-68
2022/05/10 01:21:49;;;;;;;9.95;7.22;;;19.20;97.40;;;;;;4153265;28;20068;-68
2022/05/10 01:24:10;;;;;;;9.13;7.30;;;19.20;97.30;;;;;;4155322;28;20679;-68
2022/05/10 01:26:28;;;;;;;8.75;6.90;;;19.20;97.10;;;;;;4149040;28;20030;-68
2022/05/10 01:28:48;;;;;;;8.18;6.68;;;19.20;96.70;;;;;;4161183;28;20492;-69
2022/05/10 01:30:49;;;;;;;9.07;6.60;;;19.20;96.70;;;;;;4151908;28;20022;-69
2022/05/10 01:35:31;;;;;;;10.07;7.38;;;19.20;97.10;;;;;;4156284;28;20046;-68
2022/05/10 01:37:37;;;;;;;10.00;7.60;;;19.10;97.30;;;;;;4158936;28;20025;-69
2022/05/10 01:39:50;;;;;;;9.68;7.60;;;19.10;97.50;;;;;;4160212;28;20034;-68
2022/05/10 01:41:56;;;;;;;;;;;19.10;97.30;;;;;;4152027;28;20061;-68
2022/05/10 01:44:00;;;;;;;8.43;7.05;;;19.10;97.20;;;;;;4155722;28;20914;-69
2022/05/10 01:46:10;;;;;;;9.48;7.35;;;19.10;97.00;;;;;;4150960;28;20480;-68
2022/05/10 01:48:17;;;;;;;11.82;8.35;;;19.00;96.50;;;;;;4157449;28;20038;-68
2022/05/10 01:50:22;;;;;;;10.18;8.20;;;18.90;97.20;;;;;;4155286;28;20444;-68
2022/05/10 01:52:41;;;;;;;11.35;7.88;;;18.80;97.30;;;;;;4156410;28;20049;-69
2022/05/10 01:54:41;;;;;;;11.52;8.00;;;18.80;97.30;;;;;;4154795;28;20045;-68
2022/05/10 01:56:42;;;;;;;9.60;7.88;;;18.70;97.50;;;;;;4161147;28;20038;-68
2022/05/10 01:58:46;;;;;;;9.48;6.97;;;18.80;97.60;;;;;;4156373;28;20034;-68
2022/05/10 02:00:55;;;;;;;10.30;7.60;;;18.80;97.80;;;;;;4155392;28;20026;-69
2022/05/10 02:03:25;;;;;;;11.00;8.20;;;18.70;97.90;;;;;;4151702;28;20099;-68
2022/05/10 02:05:39;;;;;;;9.32;7.63;;;18.70;98.20;;;;;;4143254;28;20038;-68
2022/05/10 02:07:42;;;;;;;12.45;7.60;;;18.70;97.80;;;;;;4153364;28;20026;-69
2022/05/10 02:10:07;;;;;;;8.60;7.30;;;18.70;98.30;;;;;;4156964;28;20036;-68
2022/05/10 02:12:29;;;;;;;9.57;7.03;;;18.70;97.30;;;;;;4155677;28;20099;-68
2022/05/10 02:14:35;;;;;;;10.63;7.15;;;18.60;97.40;;;;;;4153158;28;20121;-68
2022/05/10 02:16:46;;;;;;;8.88;6.97;;;18.60;97.70;;;;;;4156519;28;20504;-69
2022/05/10 02:18:56;;;;;;;12.00;7.18;;;18.60;97.90;;;;;;4156937;28;20038;-68
2022/05/10 02:21:14;;;;;;;9.95;7.28;;;18.60;97.80;;;;;;4151907;28;20030;-69
2022/05/10 02:23:57;;;;;;;9.02;6.68;;;18.60;97.70;;;;;;4158327;28;20046;-68
2022/05/10 02:26:02;;;;;;;10.45;7.05;;;18.60;97.40;;;;;;4142595;28;20355;-69
2022/05/10 02:28:24;;;;;;;9.68;7.93;;;18.60;97.20;;;;;;4148597;28;20542;-69
2022/05/10 02:30:29;;;;;;;10.77;7.90;;;18.60;97.10;;;;;;4158495;28;20048;-69
2022/05/10 02:34:56;;;;;;;10.52;7.55;;;18.60;98.00;;;;;;4156829;28;20107;-68
2022/05/10 02:36:57;;;;;;;12.43;9.18;;;18.50;98.30;;;;;;4152353;28;20590;-68
2022/05/10 02:38:58;;;;;;;13.55;8.48;;;18.50;98.60;;;;;;4155854;28;20029;-68
2022/05/10 02:41:01;;;;;;;12.32;8.65;;;18.50;98.70;;;;;;4158093;28;20496;-69
2022/05/10 02:43:02;;;;;;;12.65;8.40;;;18.50;99.10;;;;;;4157496;28;20047;-68
2022/05/10 02:45:04;;;;;;;11.30;8.45;;;18.50;99.00;;;;;;4154912;28;20108;-68
2022/05/10 02:47:09;;;;;;;13.73;9.32;;;18.40;99.20;;;;;;4158219;28;20365;-69
2022/05/10 02:49:10;;;;;;;10.60;8.23;;;18.50;99.10;;;;;;4158936;28;20026;-68
2022/05/10 02:51:11;;;;;;;12.02;8.50;;;18.40;99.30;;;;;;4158305;28;20687;-69
2022/05/10 02:53:11;;;;;;;9.23;7.80;;;18.40;99.20;;;;;;4154740;28;20038;-68
2022/05/10 02:55:19;;;;;;;12.30;8.90;;;18.30;99.50;;;;;;4149459;28;20481;-69
2022/05/10 02:57:19;;;;;;;12.82;8.85;;;18.30;99.50;;;;;;4154347;28;20042;-68
2022/05/10 02:59:27;;;;;;;12.00;8.98;;;18.30;99.80;;;;;;4151515;28;20554;-69
2022/05/10 03:02:00;;;;;;;11.43;8.60;;;18.30;99.90;;;;;;4155644;28;20033;-68
2022/05/10 03:04:02;;;;;;;12.10;9.17;;;18.20;99.90;;;;;;4152562;28;20090;-68
2022/05/10 03:06:04;;;;;;;12.15;8.18;;;18.20;99.90;;;;;;4154371;28;20264;-69
2022/05/10 03:08:05;;;;;;;10.73;8.30;;;18.20;99.90;;;;;;4156797;28;20044;-68
2022/05/10 03:10:07;;;;;;;13.52;8.63;;;18.20;99.90;;;;;;4157157;28;20029;-69
2022/05/10 03:12:08;;;;;;;11.85;8.07;;;18.10;99.90;;;;;;4158908;28;20038;-68
2022/05/10 03:14:10;;;;;;;11.38;8.43;;;18.10;99.90;;;;;;4156400;28;20033;-68
2022/05/10 03:16:11;;;;;;;13.90;8.60;;;18.00;99.90;;;;;;4153308;28;20390;-68
2022/05/10 03:18:12;;;;;;;12.30;8.32;;;18.00;99.90;;;;;;4147736;28;20112;-68
2022/05/10 03:20:12;;;;;;;9.63;8.18;;;18.00;99.90;;;;;;4154296;28;20041;-69
2022/05/10 03:22:13;;;;;;;12.32;8.45;;;18.00;99.90;;;;;;4151224;28;20036;-68
2022/05/10 03:24:13;;;;;;;11.85;8.45;;;17.90;99.90;;;;;;4155682;28;20137;-68
2022/05/10 03:26:16;;;;;;;12.90;8.07;;;17.90;99.90;;;;;;4154184;28;20068;-68
2022/05/10 03:28:17;;;;;;;;;;;17.80;99.90;;;;;;4156748;28;20037;-68
2022/05/10 03:30:18;;;;;;;12.23;7.63;;;17.80;99.90;;;;;;4153972;28;20008;-69
2022/05/10 03:32:19;;;;;;;17.55;8.75;;;17.80;99.90;;;;;;4157982;28;20374;-68
2022/05/10 03:36:39;;;;;;;10.32;8.05;;;17.80;99.90;;;;;;4153815;28;20381;-68
2022/05/10 03:38:39;;;;;;;11.82;8.48;;;17.80;99.90;;;;;;4151530;28;20044;-68
2022/05/10 03:40:40;;;;;;;12.10;7.85;;;17.80;99.90;;;;;;4150862;28;20141;-68
2022/05/10 03:42:49;;;;;;;12.80;8.80;;;17.80;99.90;;;;;;4157755;28;20040;-69
2022/05/10 03:44:52;;;;;;;11.95;8.27;;;17.80;99.90;;;;;;4150060;28;20033;-68
2022/05/10 03:46:55;;;;;;;11.13;8.57;;;17.70;99.90;;;;;;4156448;28;20082;-68
2022/05/10 03:48:55;;;;;;;9.13;7.22;;;17.70;99.90;;;;;;4151159;28;20053;-69
2022/05/10 03:50:56;;;;;;;10.20;7.85;;;17.70;99.90;;;;;;4152206;28;20048;-69
2022/05/10 03:52:57;;;;;;;10.85;8.27;;;17.70;99.90;;;;;;4154377;28;20045;-68
2022/05/10 03:54:58;;;;;;;13.93;8.65;;;17.70;99.90;;;;;;4157943;28;20040;-69
2022/05/10 03:56:59;;;;;;;10.60;7.65;;;17.70;99.90;;;;;;4154187;28;20605;-68
2022/05/10 03:59:00;;;;;;;10.52;8.00;;;17.70;99.90;;;;;;4153460;28;20026;-69
2022/05/10 04:01:01;;;;;;;10.55;8.20;;;17.70;99.90;;;;;;4158110;28;20103;-68
2022/05/10 04:03:02;;;;;;;12.95;8.25;;;17.70;99.90;;;;;;4155986;28;20025;-68
2022/05/10 04:05:04;;;;;;;10.88;8.02;;;17.60;99.90;;;;;;4147160;28;20044;-68
2022/05/10 04:07:05;;;;;;;9.68;7.55;;;17.60;99.90;;;;;;4155885;28;20033;-68
2022/05/10 04:09:05;;;;;;;14.00;8.35;;;17.60;99.90;;;;;;4150145;28;20085;-68
2022/05/10 04:11:09;;;;;;;12.65;7.18;;;17.60;99.90;;;;;;4157962;28;20393;-68
2022/05/10 04:13:10;;;;;;;16.42;8.40;;;17.60;99.90;;;;;;4150841;28;20106;-68
2022/05/10 04:15:14;;;;;;;11.90;8.60;;;17.60;99.90;;;;;;4132857;28;20113;-69
2022/05/10 04:17:15;;;;;;;12.68;8.63;;;17.60;99.90;;;;;;4155937;28;20045;-68
2022/05/10 04:19:15;;;;;;;13.60;8.85;;;17.60;99.90;;;;;;4156076;28;20043;-69
2022/05/10 04:21:16;;;;;;;11.85;8.38;;;17.60;99.90;;;;;;4154286;28;20099;-68
2022/05/10 04:23:17;;;;;;;12.07;7.97;;;17.50;99.90;;;;;;4153531;28;20035;-68
2022/05/10 04:25:21;;;;;;;10.93;8.18;;;17.50;99.90;;;;;;4158153;28;20026;-68
2022/05/10 04:27:22;;;;;;;10.48;8.32;;;17.50;99.90;;;;;;4154365;28;20026;-68
2022/05/10 04:29:22;;;;;;;13.40;8.57;;;17.50;99.90;;;;;;4158920;28;20498;-68
2022/05/10 04:31:23;;;;;;;11.90;7.68;;;17.40;99.90;;;;;;4153095;28;20480;-68
2022/05/10 04:33:24;;;;;;;12.15;8.40;;;17.50;99.90;;;;;;4150516;28;20034;-68
2022/05/10 04:35:24;;;;;;;14.52;8.30;;;17.40;99.90;;;;;;4145954;28;20065;-68
2022/05/10 04:37:25;;;;;;;15.70;8.73;;;17.40;99.90;;;;;;4150967;28;20049;-68
2022/05/10 04:41:24;;;;;;;12.00;7.82;;;17.40;99.90;;;;;;4150816;28;20558;-68
2022/05/10 04:41:49;;;;;;;13.55;8.07;;;17.40;99.90;;;;;;4151462;28;20058;-68
2022/05/10 04:43:51;;;;;;;12.20;7.97;;;17.50;99.90;;;;;;4151619;28;20041;-68
2022/05/10 04:45:52;;;;;;;11.05;7.25;;;17.40;99.90;;;;;;4155995;28;20034;-68
2022/05/10 04:47:53;;;;;;;12.50;7.07;;;17.40;99.90;;;;;;4153642;28;20071;-69
2022/05/10 04:49:53;;;;;;;11.80;8.10;;;17.40;99.90;;;;;;4153604;28;20034;-68
2022/05/10 04:51:54;;;;;;;14.25;8.48;;;17.40;99.90;;;;;;4152381;28;20073;-68
2022/05/10 04:53:55;;;;;;;14.00;8.85;;;17.40;99.90;;;;;;4147792;28;20045;-68
2022/05/10 04:55:56;;;;;;;12.57;8.82;;;17.40;99.90;;;;;;4153090;28;20041;-69
2022/05/10 04:57:57;;;;;;;13.63;7.82;;;17.30;99.90;;;;;;4155286;28;20041;-68
2022/05/10 04:59:57;;;;;;;9.90;6.97;;;17.40;99.90;;;;;;4150792;28;20041;-69
2022/05/10 05:01:58;;;;;;;8.90;7.18;;;17.40;99.90;;;;;;4154663;28;20032;-68
2022/05/10 05:04:02;;;;;;;11.90;7.88;;;17.40;99.90;;;;;;4153779;28;20059;-68
2022/05/10 05:06:03;;;;;;;13.80;8.18;;;17.40;99.90;;;;;;4152155;28;20046;-68
2022/05/10 05:08:04;;;;;;;12.13;8.52;;;17.40;99.90;;;;;;4153437;28;20039;-69
2022/05/10 05:10:05;;;;;;;11.75;7.55;;;17.40;99.90;;;;;;4159341;28;20022;-68
2022/05/10 05:12:06;;;;;;;13.27;8.35;;;17.40;99.90;;;;;;4155004;28;20401;-69
2022/05/10 05:14:07;;;;;;;15.68;8.57;;;17.40;99.90;;;;;;4157132;28;20033;-69
2022/05/10 05:16:08;;;;;;;13.60;8.52;;;17.40;99.90;;;;;;4154817;28;20057;-68
2022/05/10 05:18:09;;;;;;;14.80;8.55;;;17.50;99.90;;;;;;4151974;28;20060;-69
2022/05/10 05:20:11;;;;;;;9.93;7.40;;;17.50;99.90;;;;;;4158827;28;20072;-69
2022/05/10 05:22:13;;;;;;;10.00;7.73;;;17.50;99.90;;;;;;4159305;28;20068;-69
2022/05/10 05:24:13;;;;;;;14.25;8.80;;;17.50;99.90;;;;;;4156231;28;20025;-68
2022/05/10 05:26:14;;;;;;;12.07;8.13;;;17.50;99.90;;;;;;4155153;28;20472;-69
2022/05/10 05:28:15;;;;;;;12.98;8.60;;;17.50;99.90;;;;;;4157364;28;20045;-69
2022/05/10 05:30:16;;;;;;;18.60;8.95;;;17.60;99.90;;;;;;4158340;28;20121;-68
2022/05/10 05:32:21;;;;;;;13.32;8.27;;;17.60;99.90;;;;;;4154833;28;20621;-69
2022/05/10 05:34:21;;;;;;;12.98;7.80;;;17.60;99.90;;;;;;4154236;28;20033;-68
2022/05/10 05:36:22;;;;;;;19.65;10.52;;;17.60;99.90;;;;;;4151381;28;20061;-69
2022/05/10 05:38:24;;;;;;;17.40;12.35;;;17.60;99.90;;;;;;4156103;28;20036;-68
2022/05/10 05:40:25;;;;;;;19.10;12.55;;;17.60;99.90;;;;;;4158598;28;20781;-68
2022/05/10 05:42:26;;;;;;;24.10;15.13;;;17.60;99.90;;;;;;4158761;28;20045;-69
2022/05/10 05:44:26;;;;;;;25.13;16.83;;;17.70;99.90;;;;;;4155230;28;20045;-70
2022/05/10 05:46:27;;;;;;;29.17;16.33;;;17.70;99.90;;;;;;4155217;28;20026;-69
2022/05/10 05:48:28;;;;;;;25.85;16.45;;;17.70;99.90;;;;;;4157382;28;20044;-69
2022/05/10 05:50:30;;;;;;;24.60;15.00;;;17.70;99.90;;;;;;4158080;28;21053;-69
2022/05/10 05:52:31;;;;;;;29.45;15.60;;;17.70;99.90;;;;;;4156492;28;20481;-69
2022/05/10 05:54:34;;;;;;;22.95;14.27;;;17.80;99.90;;;;;;4159510;28;20079;-69
2022/05/10 05:56:35;;;;;;;21.45;12.82;;;17.80;99.90;;;;;;4157186;28;20045;-69
2022/05/10 05:58:37;;;;;;;22.65;12.43;;;17.80;99.90;;;;;;4159036;28;20393;-71
2022/05/10 06:00:38;;;;;;;17.02;10.90;;;17.90;99.90;;;;;;4156443;28;20096;-69
2022/05/10 06:02:40;;;;;;;12.60;9.68;;;17.90;99.90;;;;;;4159366;28;20457;-69
2022/05/10 06:04:41;;;;;;;16.00;9.90;;;17.90;99.90;;;;;;4157723;28;20070;-69
2022/05/10 06:06:41;;;;;;;18.17;10.38;;;17.90;99.90;;;;;;4157961;28;20656;-69
2022/05/10 06:08:42;;;;;;;13.82;9.85;;;17.90;99.90;;;;;;4157909;28;20098;-69
2022/05/10 06:10:44;;;;;;;13.15;9.60;;;18.00;99.90;;;;;;4156444;28;20044;-69
2022/05/10 06:12:45;;;;;;;20.60;10.73;;;18.10;99.90;;;;;;4157252;28;20497;-69
2022/05/10 06:14:46;;;;;;;18.90;10.45;;;18.20;99.90;;;;;;4156783;28;20041;-69
2022/05/10 06:16:47;;;;;;;15.77;10.13;;;18.20;99.90;;;;;;4155502;28;20044;-69
2022/05/10 06:18:48;;;;;;;15.50;10.20;;;18.30;99.90;;;;;;4158008;28;20336;-68
2022/05/10 06:20:49;;;;;;;15.68;10.27;;;18.40;99.90;;;;;;4157601;28;20543;-69
2022/05/10 06:22:50;;;;;;;17.83;10.35;;;18.60;99.90;;;;;;4156538;28;20034;-69
2022/05/10 06:24:50;;;;;;;15.40;9.60;;;18.70;99.90;;;;;;4158006;28;20131;-69
2022/05/10 06:26:51;;;;;;;13.43;9.23;;;18.90;99.90;;;;;;4156348;28;20042;-69
2022/05/10 06:28:52;;;;;;;18.48;10.93;;;19.10;99.90;;;;;;4156194;28;20377;-69
2022/05/10 06:30:53;;;;;;;16.20;10.10;;;19.30;99.90;;;;;;4157620;28;20029;-69
2022/05/10 06:32:57;;;;;;;17.02;9.25;;;19.50;99.90;;;;;;4157709;28;20365;-69
2022/05/10 06:35:00;;;;;;;14.10;9.25;;;19.70;99.90;;;;;;4157223;28;20037;-69
2022/05/10 06:37:00;;;;;;;13.00;8.90;;;19.80;99.90;;;;;;4156464;28;20044;-69
2022/05/10 06:39:01;;;;;;;13.30;8.82;;;20.00;99.90;;;;;;4157297;28;20042;-69
2022/05/10 06:41:04;;;;;;;13.95;9.15;;;20.00;99.90;;;;;;4156718;28;20072;-69
2022/05/10 06:43:05;;;;;;;17.55;8.45;;;20.10;99.90;;;;;;4165090;28;20071;-69
2022/05/10 06:45:09;;;;;;;14.32;8.43;;;20.10;99.90;;;;;;4155590;28;20033;-69
2022/05/10 06:47:10;;;;;;;12.98;9.05;;;20.20;99.90;;;;;;4153299;28;20041;-69
2022/05/10 06:49:10;;;;;;;12.95;8.45;;;20.20;99.90;;;;;;4155664;28;20389;-69
2022/05/10 06:51:12;;;;;;;15.48;8.32;;;20.20;99.90;;;;;;4151954;28;20381;-69
2022/05/10 06:53:13;;;;;;;14.07;8.23;;;20.20;99.90;;;;;;4157134;28;20053;-69
2022/05/10 06:55:14;;;;;;;15.93;8.73;;;20.30;99.90;;;;;;4156001;28;20037;-69
2022/05/10 06:57:15;;;;;;;12.90;7.25;;;20.30;99.90;;;;;;4156808;28;20064;-69
2022/05/10 06:59:15;;;;;;;12.50;8.00;;;20.30;99.90;;;;;;4156940;28;20037;-69
2022/05/10 07:01:16;;;;;;;14.82;7.70;;;20.30;99.90;;;;;;4156989;28;20503;-69
2022/05/10 07:03:31;;;;;;;16.38;8.32;;;20.40;99.90;;;;;;4156940;28;20043;-69
2022/05/10 07:05:32;;;;;;;14.48;8.50;;;20.40;99.90;;;;;;4153286;28;21234;-69
2022/05/10 07:07:33;;;;;;;12.13;7.18;;;20.30;99.90;;;;;;4154644;28;20040;-69
2022/05/10 07:09:33;;;;;;;10.32;6.80;;;20.40;99.90;;;;;;4156889;28;20147;-69
2022/05/10 07:11:34;;;;;;;14.32;7.88;;;20.40;99.90;;;;;;4155855;28;20518;-69
2022/05/10 07:13:36;;;;;;;14.25;6.78;;;20.40;99.80;;;;;;4156854;28;20480;-69
2022/05/10 07:15:37;;;;;;;12.95;7.03;;;20.40;99.90;;;;;;4153316;28;20052;-69
2022/05/10 07:17:38;;;;;;;13.82;7.63;;;20.40;99.90;;;;;;4155825;28;20029;-69
2022/05/10 07:19:39;;;;;;;12.85;6.57;;;20.50;99.80;;;;;;4156622;28;20168;-69
2022/05/10 07:21:39;;;;;;;12.85;6.00;;;20.60;99.70;;;;;;4155304;28;20045;-69
2022/05/10 07:23:40;;;;;;;13.32;7.07;;;20.60;99.70;;;;;;4155777;28;20030;-69
2022/05/10 07:25:41;;;;;;;12.30;7.55;;;20.70;99.50;;;;;;4156605;28;20037;-69
2022/05/10 07:27:41;;;;;;;14.27;7.47;;;20.70;99.40;;;;;;4153003;28;20398;-69
2022/05/10 07:29:43;;;;;;;12.15;6.13;;;20.80;99.30;;;;;;4158310;28;20034;-69
2022/05/10 07:31:43;;;;;;;13.05;6.88;;;20.80;99.30;;;;;;4155281;28;20041;-69
2022/05/10 07:33:44;;;;;;;9.80;6.50;;;20.90;99.20;;;;;;4153674;28;20488;-69
2022/05/10 07:38:04;;;;;;;14.32;6.38;;;21.10;99.00;;;;;;4156922;28;20030;-69
2022/05/10 07:40:06;;;;;;;9.80;5.85;;;21.20;98.70;;;;;;4156515;28;20491;-69
2022/05/10 07:42:07;;;;;;;10.73;6.25;;;21.30;98.30;;;;;;4156481;28;20061;-71
2022/05/10 07:44:08;;;;;;;9.73;6.10;;;21.40;98.20;;;;;;4154044;28;20034;-69
2022/05/10 07:46:09;;;;;;;8.15;5.50;;;21.50;98.30;;;;;;4155945;28;20034;-68
2022/05/10 07:48:09;;;;;;;8.90;5.43;;;21.60;98.30;;;;;;4157351;28;20037;-69
2022/05/10 07:50:10;;;;;;;9.93;5.57;;;21.70;97.70;;;;;;4153665;28;20052;-69
2022/05/10 07:52:13;;;;;;;9.07;5.60;;;21.90;97.60;;;;;;4156416;28;20457;-69
2022/05/10 07:54:14;;;;;;;10.35;5.68;;;22.00;96.70;;;;;;4155460;28;20048;-69
2022/05/10 07:56:15;;;;;;;8.88;5.50;;;22.10;95.70;;;;;;4155889;28;20045;-69
2022/05/10 07:58:15;;;;;;;10.15;5.18;;;22.20;96.10;;;;;;4149673;28;20045;-69
2022/05/10 08:00:17;;;;;;;8.80;4.68;;;22.30;96.20;;;;;;4155876;28;20053;-69
2022/05/10 08:02:18;;;;;;;9.80;5.00;;;22.50;96.70;;;;;;4155893;28;20045;-69
2022/05/10 08:04:18;;;;;;;6.57;4.53;;;22.70;96.30;;;;;;4151409;28;20033;-68
2022/05/10 08:06:20;;;;;;;7.20;4.18;;;22.80;95.40;;;;;;4154759;28;20103;-69
2022/05/10 08:08:22;;;;;;;7.53;5.03;;;22.90;93.90;;;;;;4149778;28;20519;-69
2022/05/10 08:10:22;;;;;;;8.90;4.50;;;23.10;93.50;;;;;;4155549;28;20057;-69
2022/05/10 08:12:23;;;;;;;5.82;3.60;;;23.10;92.80;;;;;;4155822;28;20045;-69
2022/05/10 08:14:23;;;;;;;7.38;3.72;;;23.20;93.20;;;;;;4147649;28;20022;-68
2022/05/10 08:16:26;;;;;;;6.55;3.72;;;23.20;92.50;;;;;;4155167;28;20330;-68
2022/05/10 08:18:27;;;;;;;7.45;4.00;;;23.20;92.60;;;;;;4154803;28;20033;-69
2022/05/10 08:20:28;;;;;;;7.55;4.10;;;23.40;93.00;;;;;;4154534;28;20481;-68
2022/05/10 08:22:29;;;;;;;8.10;3.80;;;23.40;93.00;;;;;;4154039;28;20045;-70
2022/05/10 08:24:30;;;;;;;9.10;4.32;;;23.50;93.30;;;;;;4154407;28;20038;-69
2022/05/10 08:26:30;;;;;;;9.30;4.82;;;23.60;92.90;;;;;;4160548;28;20037;-69
2022/05/10 08:28:34;;;;;;;7.20;4.00;;;23.60;92.50;;;;;;4154822;28;20400;-68
2022/05/10 08:30:35;;;;;;;8.48;4.50;;;23.70;92.30;;;;;;4155344;28;20060;-68
2022/05/10 08:32:35;;;;;;;6.60;4.05;;;23.70;92.00;;;;;;4156358;28;20120;-69
2022/05/10 08:34:36;;;;;;;6.05;3.80;;;23.70;91.90;;;;;;4155399;28;20091;-69
2022/05/10 08:36:37;;;;;;;7.18;4.13;;;23.70;91.80;;;;;;4155618;28;20037;-69
2022/05/10 08:38:38;;;;;;;7.60;3.97;;;23.70;92.20;;;;;;4157446;28;20648;-69
2022/05/10 08:40:53;;;;;;;5.45;3.70;;;23.80;92.00;;;;;;4154887;28;20477;-69
2022/05/10 08:42:58;;;;;;;8.30;4.47;;;23.80;91.90;;;;;;4154053;28;20049;-69
2022/05/10 08:45:04;;;;;;;8.30;3.38;;;23.80;92.20;;;;;;4157768;28;20064;-70
2022/05/10 08:47:07;;;;;;;5.05;3.50;;;23.80;92.20;;;;;;4157759;28;20072;-69
2022/05/10 08:49:32;;;;;;;6.22;3.38;;;23.90;92.70;;;;;;4158153;28;20036;-70
2022/05/10 08:51:33;;;;;;;8.23;3.95;;;23.90;92.70;;;;;;4157857;28;20068;-69
2022/05/10 08:53:34;;;;;;;9.38;4.10;;;23.90;92.10;;;;;;4158985;28;20065;-69
2022/05/10 08:55:45;;;;;;;9.45;4.60;;;23.90;92.20;;;;;;4156861;28;20087;-69
2022/05/10 08:58:05;;;;;;;5.50;3.97;;;23.90;91.90;;;;;;4156240;28;20037;-69
2022/05/10 09:00:11;;;;;;;8.45;3.92;;;24.00;92.50;;;;;;4146996;28;20444;-70
2022/05/10 09:02:18;;;;;;;7.25;3.58;;;24.00;92.00;;;;;;4158901;28;20468;-68
2022/05/10 09:04:45;;;;;;;14.32;3.80;;;24.10;91.60;;;;;;4157930;28;20036;-69
2022/05/10 09:07:16;;;;;;;8.27;3.75;;;24.20;91.50;;;;;;4157610;28;20025;-68
2022/05/10 09:09:23;;;;;;;7.40;3.97;;;24.30;91.00;;;;;;4167919;28;20056;-68
2022/05/10 09:11:35;;;;;;;5.80;3.10;;;24.30;90.80;;;;;;4155838;28;20128;-69
2022/05/10 09:13:37;;;;;;;6.80;3.60;;;24.50;91.00;;;;;;4155297;28;20033;-69
2022/05/10 09:15:44;;;;;;;23.48;4.13;;;24.60;91.00;;;;;;4155392;28;20033;-69
2022/05/10 09:17:44;;;;;;;11.48;3.70;;;24.80;91.00;;;;;;4157193;28;20029;-69
2022/05/10 09:19:45;;;;;;;9.30;3.55;;;24.90;91.10;;;;;;4158092;28;20029;-69
2022/05/10 09:21:54;;;;;;;8.32;3.13;;;25.00;91.00;;;;;;4157252;28;20038;-69
2022/05/10 09:24:15;;;;;;;7.88;3.25;;;25.00;90.30;;;;;;4156119;28;20038;-68
2022/05/10 09:26:16;;;;;;;5.03;2.47;;;25.10;88.00;;;;;;4153810;28;20042;-69
2022/05/10 09:28:44;;;;;;;4.10;2.50;;;25.10;87.80;;;;;;4156826;28;20072;-69
2022/05/10 09:34:45;;;;;;;4.60;2.28;;;25.10;85.70;;;;;;4155456;28;20370;-69
2022/05/10 09:35:51;;;;;;;9.88;2.55;;;25.20;85.60;;;;;;4157478;28;20038;-69
2022/05/10 09:38:09;;;;;;;6.60;2.25;;;25.20;84.50;;;;;;4157091;28;20040;-69
2022/05/10 09:40:32;;;;;;;5.68;2.30;;;25.20;83.50;;;;;;4157311;28;20053;-69
2022/05/10 09:42:40;;;;;;;4.07;2.28;;;25.20;83.00;;;;;;4158399;28;20042;-69
2022/05/10 09:44:41;;;;;;;5.57;2.45;;;25.10;82.90;;;;;;4158666;28;20034;-70
2022/05/10 09:46:42;;;;;;;4.53;2.30;;;25.10;82.80;;;;;;4159072;28;20437;-69
2022/05/10 09:48:44;;;;;;;5.25;2.55;;;25.00;81.90;;;;;;4154559;28;20408;-69
2022/05/10 09:50:51;;;;;;;3.40;2.30;;;25.00;82.70;;;;;;4158042;28;20038;-69
2022/05/10 09:53:13;;;;;;;3.92;2.17;;;24.90;83.30;;;;;;4161145;28;20036;-69
2022/05/10 09:55:25;;;;;;;2.92;2.58;;;24.90;82.10;;;;;;4147962;28;20571;-69
2022/05/10 09:57:36;;;;;;;3.10;2.10;;;25.00;83.30;;;;;;4164691;28;20057;-69
2022/05/10 09:59:46;;;;;;;6.75;2.60;;;25.00;83.40;;;;;;4158767;28;20033;-69
2022/05/10 10:01:49;;;;;;;6.07;2.55;;;24.90;82.80;;;;;;4158569;28;20033;-69
2022/05/10 10:03:50;;;;;;;7.57;2.92;;;24.90;81.50;;;;;;4158618;28;20118;-69
2022/05/10 10:05:50;;;;;;;4.47;2.28;;;24.80;80.10;;;;;;4157676;28;20092;-69
2022/05/10 10:07:56;;;;;;;4.13;2.53;;;24.80;81.60;;;;;;4157503;28;20029;-69
2022/05/10 10:10:17;;;;;;;6.57;2.70;;;24.70;81.00;;;;;;4150542;28;20448;-69
2022/05/10 10:12:41;;;;;;;5.38;3.15;;;24.80;81.90;;;;;;4157089;28;20419;-69
2022/05/10 10:14:47;;;;;;;6.75;2.88;;;24.80;80.60;;;;;;4157179;28;20400;-69
2022/05/10 10:16:52;;;;;;;5.50;2.58;;;24.70;81.30;;;;;;4158146;28;20038;-69
2022/05/10 10:19:14;;;;;;;5.28;2.58;;;24.70;80.90;;;;;;4157539;28;20118;-69
2022/05/10 10:21:41;;;;;;;4.22;2.50;;;24.70;81.60;;;;;;4157032;28;20037;-69
2022/05/10 10:23:48;;;;;;;5.63;3.10;;;24.60;82.10;;;;;;4156330;28;20033;-69
2022/05/10 10:25:51;;;;;;;3.00;2.30;;;24.50;80.60;;;;;;4158701;28;20029;-69
2022/05/10 10:28:04;;;;;;;2.90;2.20;;;24.60;82.60;;;;;;4156257;28;20439;-69
2022/05/10 10:30:17;;;;;;;4.15;2.47;;;24.50;80.80;;;;;;4155973;28;20048;-69
2022/05/10 10:32:35;;;;;;;4.22;2.80;;;24.50;80.70;;;;;;4156676;28;20400;-69
2022/05/10 10:34:40;;;;;;;6.43;2.65;;;24.50;81.40;;;;;;4156292;28;20124;-69
2022/05/10 10:36:53;;;;;;;3.53;2.20;;;24.50;81.60;;;;;;4156753;28;20493;-69
2022/05/10 10:39:12;;;;;;;3.20;2.25;;;24.50;82.30;;;;;;4158041;28;20041;-69
2022/05/10 10:41:30;;;;;;;4.88;2.75;;;24.50;82.50;;;;;;4156912;28;20041;-68
2022/05/10 10:43:40;;;;;;;4.53;2.20;;;24.40;81.60;;;;;;4157686;28;20477;-70
2022/05/10 10:45:46;;;;;;;4.35;2.40;;;24.50;81.40;;;;;;4152807;28;20045;-69
2022/05/10 10:47:55;;;;;;;3.83;2.30;;;24.60;83.70;;;;;;4158977;28;20049;-69
2022/05/10 10:50:01;;;;;;;4.30;2.58;;;24.70;82.60;;;;;;4158701;28;20037;-69
2022/05/10 10:52:02;;;;;;;5.38;2.60;;;24.70;83.20;;;;;;4156671;28;20049;-69
2022/05/10 10:54:04;;;;;;;3.90;2.35;;;24.80;81.50;;;;;;4158474;28;20041;-68
2022/05/10 10:56:13;;;;;;;3.65;2.30;;;24.90;81.60;;;;;;4155541;28;20049;-68
2022/05/10 10:58:39;;;;;;;6.72;2.63;;;25.00;80.70;;;;;;4157211;28;20076;-69